Time;durP1;ratioP1;P1;durP2;ratioP2;P2;SDS_P1;SDS_P2;PMS_P1;PMS_P2;Temp;Humidity;BMP_temperature;BMP_pressure;BME280_temperature;BME280_humidity;BME280_pressure;Samples;Min_cycle;Max_cycle;Signal;HPM_P1;HPM_P2
2023/07/15 00:00:25;;;;;;;8.20;4.20;;;;;;;16.57;74.40;100760.85;105400;1256;96600;-76
2023/07/15 00:03:31;;;;;;;5.10;3.90;;;;;;;16.54;74.65;100762.17;105423;1254;96617;-77
2023/07/15 00:06:17;;;;;;;8.20;3.80;;;;;;;16.48;74.49;100760.50;105524;1256;100453;-77
2023/07/15 00:09:04;;;;;;;5.00;3.50;;;;;;;16.40;74.57;100760.55;105527;1259;100182;-76
2023/07/15 00:11:50;;;;;;;8.20;3.70;;;;;;;16.37;74.91;100763.58;105517;1258;97663;-76
2023/07/15 00:14:36;;;;;;;6.10;4.00;;;;;;;16.36;75.50;100759.59;105451;1254;97289;-76
2023/07/15 00:17:21;;;;;;;5.80;3.50;;;;;;;16.35;75.75;100757.19;105519;1257;97837;-76
2023/07/15 00:20:14;;;;;;;7.40;4.10;;;;;;;16.32;75.65;100755.46;105456;1257;99974;-77
2023/07/15 00:23:00;;;;;;;4.10;3.50;;;;;;;16.25;75.71;100753.27;105642;1253;100048;-77
2023/07/15 00:25:46;;;;;;;6.30;3.40;;;;;;;16.18;75.88;100749.54;105573;1259;97899;-76
2023/07/15 00:28:31;;;;;;;5.40;3.60;;;;;;;16.12;75.80;100749.86;105333;1259;96635;-77
2023/07/15 00:31:19;;;;;;;5.90;3.30;;;;;;;16.09;75.94;100754.59;105445;1258;97026;-77
2023/07/15 00:34:05;;;;;;;7.00;3.90;;;;;;;16.04;75.92;100752.52;105456;1256;101730;-76
2023/07/15 00:36:50;;;;;;;5.40;3.30;;;;;;;15.98;76.19;100750.64;105289;1258;99074;-76
2023/07/15 00:39:36;;;;;;;5.00;4.00;;;;;;;15.96;76.58;100749.81;105311;1257;97688;-76
2023/07/15 00:42:50;;;;;;;6.60;4.30;;;;;;;15.99;76.54;100749.26;105485;1259;97128;-76
2023/07/15 00:45:35;;;;;;;7.10;4.90;;;;;;;16.03;76.89;100750.59;105576;1254;97864;-76
2023/07/15 00:48:27;;;;;;;7.00;4.50;;;;;;;16.05;77.11;100754.66;105470;1255;100109;-76
2023/07/15 00:51:12;;;;;;;8.40;5.00;;;;;;;16.06;77.24;100751.24;105540;1259;99169;-76
2023/07/15 00:53:59;;;;;;;7.30;5.70;;;;;;;16.07;77.50;100749.50;105273;1256;98676;-77
2023/07/15 00:56:46;;;;;;;13.70;6.60;;;;;;;16.08;77.67;100750.86;105361;1257;96773;-77
2023/07/15 00:59:33;;;;;;;9.00;5.90;;;;;;;16.06;77.85;100750.83;105506;1253;97281;-76
2023/07/15 01:02:19;;;;;;;10.80;6.00;;;;;;;16.04;78.01;100748.23;105424;1259;100016;-76
2023/07/15 01:05:06;;;;;;;9.60;5.80;;;;;;;16.00;77.73;100747.17;105478;1258;99001;-76
2023/07/15 01:07:52;;;;;;;11.20;5.90;;;;;;;15.94;77.73;100749.83;105473;1253;97711;-77
2023/07/15 01:10:37;;;;;;;12.20;7.20;;;;;;;15.92;77.88;100748.69;105388;1258;96522;-76
2023/07/15 01:13:23;;;;;;;8.50;4.90;;;;;;;15.91;78.12;100748.11;105558;1259;96401;-77
2023/07/15 01:16:08;;;;;;;6.00;4.10;;;;;;;15.90;78.00;100746.38;105405;1253;99997;-76
2023/07/15 01:18:56;;;;;;;5.40;4.00;;;;;;;15.90;78.16;100743.21;105489;1260;99251;-76
2023/07/15 01:21:48;;;;;;;6.50;4.50;;;;;;;15.89;78.26;100742.85;105377;1256;99064;-75
2023/07/15 01:24:34;;;;;;;5.90;4.30;;;;;;;15.87;78.49;100736.80;105399;1254;96562;-76
2023/07/15 01:27:20;;;;;;;7.40;4.10;;;;;;;15.86;78.58;100731.15;105370;1259;97043;-76
2023/07/15 01:30:06;;;;;;;5.50;4.00;;;;;;;15.88;78.73;100732.17;105540;1257;100551;-76
2023/07/15 01:32:52;;;;;;;5.40;3.60;;;;;;;15.88;78.75;100730.45;105413;1258;100330;-76
2023/07/15 01:35:37;;;;;;;5.10;3.30;;;;;;;15.87;78.80;100729.89;105488;1253;99000;-77
2023/07/15 01:38:23;;;;;;;5.40;4.20;;;;;;;15.87;78.87;100727.10;105303;1254;96655;-76
2023/07/15 01:41:09;;;;;;;6.00;3.80;;;;;;;15.88;78.75;100725.68;105437;1259;97039;-76
2023/07/15 01:43:54;;;;;;;5.40;3.80;;;;;;;15.87;78.83;100721.20;105487;1259;100719;-77
2023/07/15 01:46:40;;;;;;;4.10;3.30;;;;;;;15.84;78.75;100726.17;105415;1259;99321;-76
2023/07/15 01:49:27;;;;;;;5.00;3.80;;;;;;;15.80;78.83;100724.23;105547;1253;99025;-76
2023/07/15 01:52:14;;;;;;;5.80;4.30;;;;;;;15.77;79.04;100717.27;105450;1259;96607;-77
2023/07/15 01:55:00;;;;;;;7.20;3.70;;;;;;;15.79;79.45;100712.78;105486;1254;97113;-76
2023/07/15 01:57:46;;;;;;;8.20;4.70;;;;;;;15.80;79.55;100711.03;105338;1254;101242;-76
2023/07/15 02:00:32;;;;;;;5.70;4.00;;;;;;;15.80;79.74;100713.36;105440;1254;99832;-77
2023/07/15 02:03:17;;;;;;;6.80;4.20;;;;;;;15.79;79.74;100716.90;105470;1253;98088;-76
2023/07/15 02:06:03;;;;;;;7.40;4.10;;;;;;;15.75;79.72;100719.45;105453;1259;96598;-76
2023/07/15 02:08:48;;;;;;;4.40;3.70;;;;;;;15.71;79.95;100720.09;105256;1259;97048;-75
2023/07/15 02:11:34;;;;;;;6.50;4.30;;;;;;;15.71;79.99;100719.98;105438;1253;100721;-74
2023/07/15 02:14:21;;;;;;;7.10;4.50;;;;;;;15.71;80.10;100717.07;105279;1260;99663;-77
2023/07/15 02:17:06;;;;;;;5.50;3.90;;;;;;;15.72;80.09;100716.15;105367;1256;99020;-77
2023/07/15 02:19:52;;;;;;;5.90;4.20;;;;;;;15.70;80.20;100718.57;105447;1254;97864;-76
2023/07/15 02:22:41;;;;;;;6.70;4.10;;;;;;;15.68;80.16;100718.50;105515;1257;97134;-76
2023/07/15 02:25:26;;;;;;;6.90;4.30;;;;;;;15.65;80.18;100719.17;105563;1254;100888;-77
2023/07/15 02:28:12;;;;;;;6.10;4.40;;;;;;;15.64;79.98;100724.05;105442;1253;100850;-76
2023/07/15 02:30:59;;;;;;;5.80;3.80;;;;;;;15.63;80.26;100725.34;105748;1258;98313;-77
2023/07/15 02:33:44;;;;;;;5.90;4.30;;;;;;;15.61;80.24;100726.96;105400;1254;97181;-77
2023/07/15 02:36:30;;;;;;;6.10;4.10;;;;;;;15.60;80.28;100726.98;105475;1258;97131;-77
2023/07/15 02:39:16;;;;;;;6.80;4.40;;;;;;;15.58;80.53;100726.70;105345;1260;100936;-77
2023/07/15 02:42:02;;;;;;;5.70;4.00;;;;;;;15.56;80.51;100730.34;105524;1258;99828;-76
2023/07/15 02:44:47;;;;;;;4.80;4.30;;;;;;;15.51;80.83;100732.55;105407;1254;97712;-76
2023/07/15 02:47:34;;;;;;;6.10;4.50;;;;;;;15.46;80.80;100733.62;105488;1254;96648;-75
2023/07/15 02:52:02;;;;;;;5.30;4.10;;;;;;;15.41;81.02;100732.29;103454;1286;636238;-78
2023/07/15 02:54:48;;;;;;;4.40;3.80;;;;;;;15.38;81.22;100730.63;104595;1267;95980;-75
2023/07/15 02:57:33;;;;;;;5.10;4.10;;;;;;;15.37;81.39;100732.21;104483;1273;95950;-77
2023/07/15 03:00:19;;;;;;;4.90;3.80;;;;;;;15.35;81.40;100729.45;104488;1266;97991;-75
2023/07/15 03:03:05;;;;;;;5.00;3.80;;;;;;;15.33;81.58;100730.61;104467;1271;99291;-76
2023/07/15 03:05:54;;;;;;;9.80;3.80;;;;;;;15.31;81.85;100729.23;104460;1273;121665;-77
2023/07/15 03:08:40;;;;;;;6.00;4.30;;;;;;;15.29;81.80;100723.98;104546;1271;95927;-77
2023/07/15 03:11:26;;;;;;;8.80;4.30;;;;;;;15.27;82.10;100726.07;104687;1271;95912;-78
2023/07/15 03:14:15;;;;;;;8.00;4.30;;;;;;;15.26;82.14;100723.24;104556;1270;98518;-76
2023/07/15 03:17:02;;;;;;;6.50;4.60;;;;;;;15.26;82.34;100719.72;104566;1265;99204;-76
2023/07/15 03:19:47;;;;;;;5.60;4.20;;;;;;;15.24;82.36;100723.80;104595;1269;97703;-77
2023/07/15 03:22:33;;;;;;;5.50;4.80;;;;;;;15.21;82.19;100724.19;104630;1265;96514;-77
2023/07/15 03:25:19;;;;;;;7.90;4.60;;;;;;;15.20;82.47;100720.58;104670;1264;95898;-77
2023/07/15 03:28:05;;;;;;;5.90;4.60;;;;;;;15.20;82.61;100721.12;104600;1263;99995;-76
2023/07/15 03:30:52;;;;;;;6.40;4.20;;;;;;;15.21;82.67;100723.23;104737;1268;100374;-77
2023/07/15 03:33:38;;;;;;;8.10;4.50;;;;;;;15.25;82.74;100725.99;104603;1264;97721;-76
2023/07/15 03:36:24;;;;;;;7.30;4.70;;;;;;;15.28;82.70;100725.27;104704;1268;95909;-77
2023/07/15 03:39:13;;;;;;;6.70;4.60;;;;;;;15.31;82.66;100721.52;104727;1264;96603;-77
2023/07/15 03:44:57;;;;;;;8.10;4.70;;;;;;;15.32;82.63;100729.00;102303;1291;636115;-76
2023/07/15 03:47:42;;;;;;;6.80;5.10;;;;;;;15.33;82.72;100731.23;104702;1268;97323;-77
2023/07/15 03:50:28;;;;;;;5.90;4.90;;;;;;;15.37;82.94;100733.58;104988;1268;96828;-77
2023/07/15 03:53:14;;;;;;;9.00;4.70;;;;;;;15.38;83.23;100735.58;104842;1266;97289;-75
2023/07/15 03:56:00;;;;;;;4.60;4.10;;;;;;;15.42;83.14;100734.19;104806;1266;99374;-78
2023/07/15 03:58:45;;;;;;;7.10;4.30;;;;;;;15.47;83.23;100732.90;102573;1276;3099099;-76
2023/07/15 04:01:31;;;;;;;6.20;5.60;;;;;;;15.52;83.38;100730.13;104979;1267;95704;-77
2023/07/15 04:04:16;;;;;;;7.90;4.60;;;;;;;15.55;83.76;100732.14;104903;1262;97126;-77
2023/07/15 04:07:02;;;;;;;6.70;5.00;;;;;;;15.59;83.98;100727.98;104790;1263;97878;-77
2023/07/15 04:09:47;;;;;;;8.50;5.00;;;;;;;15.64;84.23;100723.72;104918;1263;99082;-77
2023/07/15 04:12:33;;;;;;;7.60;6.10;;;;;;;15.71;84.35;100722.17;105159;1263;97750;-77
2023/07/15 04:15:19;;;;;;;9.70;5.40;;;;;;;15.80;84.41;100724.07;105110;1264;95836;-77
2023/07/15 04:18:04;;;;;;;8.20;4.90;;;;;;;15.91;84.54;100725.25;105194;1263;96060;-77
2023/07/15 04:20:50;;;;;;;10.70;5.30;;;;;;;16.02;84.63;100729.31;105268;1263;99994;-77
2023/07/15 04:23:36;;;;;;;9.10;5.10;;;;;;;16.14;84.13;100723.63;105231;1259;108973;-77
2023/07/15 04:26:22;;;;;;;5.90;4.80;;;;;;;16.25;84.11;100724.83;105311;1259;97849;-78
2023/07/15 04:29:08;;;;;;;9.10;5.40;;;;;;;16.37;84.18;100725.34;105379;1262;95880;-77
2023/07/15 04:31:54;;;;;;;6.80;4.70;;;;;;;16.50;84.30;100721.77;105381;1260;95887;-76
2023/07/15 04:34:39;;;;;;;6.40;5.20;;;;;;;16.62;84.36;100722.61;105122;1260;99180;-77
2023/07/15 04:37:25;;;;;;;7.30;4.80;;;;;;;16.76;84.38;100721.10;105085;1264;99084;-76
2023/07/15 04:40:11;;;;;;;8.40;5.20;;;;;;;16.88;84.48;100718.30;105083;1265;100290;-75
2023/07/15 04:42:56;;;;;;;6.20;4.70;;;;;;;17.01;84.26;100715.20;105029;1263;95957;-77
2023/07/15 04:45:42;;;;;;;7.50;4.70;;;;;;;17.12;84.36;100707.88;105110;1263;96274;-77
2023/07/15 04:48:28;;;;;;;6.90;4.40;;;;;;;17.19;83.92;100704.73;105001;1263;99909;-76
2023/07/15 04:51:13;;;;;;;6.80;4.90;;;;;;;17.24;83.62;100703.63;105222;1262;99950;-77
2023/07/15 04:54:00;;;;;;;6.50;4.70;;;;;;;17.29;83.38;100707.45;105169;1259;98162;-77
2023/07/15 04:56:46;;;;;;;10.80;4.60;;;;;;;17.35;83.22;100709.11;105463;1256;97113;-77
2023/07/15 04:59:32;;;;;;;7.10;4.40;;;;;;;17.43;83.40;100705.59;105080;1263;95996;-75
2023/07/15 05:02:17;;;;;;;5.20;4.30;;;;;;;17.52;83.44;100709.29;105503;1256;98670;-75
2023/07/15 05:05:04;;;;;;;7.40;4.30;;;;;;;17.64;83.19;100717.63;105378;1259;100687;-77
2023/07/15 05:07:52;;;;;;;5.70;4.60;;;;;;;17.76;83.16;100719.14;105477;1257;99467;-77
2023/07/15 05:10:39;;;;;;;6.40;4.60;;;;;;;17.89;82.98;100720.61;105580;1259;97197;-77
2023/07/15 05:13:25;;;;;;;8.50;5.00;;;;;;;18.01;82.95;100720.02;105444;1257;95900;-76
2023/07/15 05:16:11;;;;;;;5.60;4.80;;;;;;;18.12;83.04;100720.09;105328;1256;98629;-77
2023/07/15 05:18:56;;;;;;;6.70;5.40;;;;;;;18.24;82.96;100719.17;105410;1259;99176;-77
2023/07/15 05:21:42;;;;;;;6.20;4.70;;;;;;;18.39;82.77;100717.88;105403;1256;99013;-77
2023/07/15 05:24:28;;;;;;;9.20;5.10;;;;;;;18.55;81.10;100718.50;105299;1256;95899;-78
2023/07/15 05:27:14;;;;;;;7.20;5.20;;;;;;;18.71;80.51;100720.30;105421;1258;95863;-77
2023/07/15 05:29:59;;;;;;;10.30;5.80;;;;;;;18.88;80.16;100714.60;105449;1258;99909;-78
2023/07/15 05:32:45;;;;;;;14.20;5.60;;;;;;;19.04;79.67;100714.95;105269;1259;99065;-76
2023/07/15 05:35:30;;;;;;;8.20;5.30;;;;;;;19.16;79.13;100714.17;105299;1257;97884;-77
2023/07/15 05:38:16;;;;;;;9.50;5.40;;;;;;;19.28;78.78;100714.95;105363;1259;96050;-76
2023/07/15 05:41:01;;;;;;;9.20;5.20;;;;;;;19.40;78.98;100716.69;105495;1254;95853;-75
2023/07/15 05:43:47;;;;;;;11.10;5.20;;;;;;;19.52;78.84;100713.42;105468;1255;99372;-76
2023/07/15 05:46:33;;;;;;;5.50;4.50;;;;;;;19.65;79.24;100709.58;105262;1254;99106;-75
2023/07/15 05:49:18;;;;;;;7.60;5.60;;;;;;;19.78;79.13;100708.16;105809;1259;98395;-80
2023/07/15 05:52:03;;;;;;;5.60;4.80;;;;;;;19.92;78.42;100704.77;106722;1258;96026;-80
2023/07/15 05:54:49;;;;;;;6.30;4.80;;;;;;;20.07;77.90;100707.69;106372;1257;95844;-80
2023/07/15 05:57:35;;;;;;;7.60;4.90;;;;;;;20.22;77.59;100705.30;106713;1256;98776;-81
2023/07/15 06:00:21;;;;;;;4.50;4.10;;;;;;;20.35;77.10;100705.40;106696;1259;99098;-82
2023/07/15 06:03:08;;;;;;;8.00;5.00;;;;;;;20.50;77.08;100707.33;107119;1254;98632;-79
2023/07/15 06:06:01;;;;;;;5.80;4.70;;;;;;;20.64;76.60;100704.98;106452;1257;95733;-83
2023/07/15 06:08:47;;;;;;;10.00;4.80;;;;;;;20.78;75.98;100699.73;106818;1258;95887;-82
2023/07/15 06:14:44;;;;;;;5.90;4.10;;;;;;;21.11;75.41;100698.14;106564;1264;102167;-89
2023/07/15 06:17:30;;;;;;;5.70;4.20;;;;;;;21.25;74.24;100696.69;106275;1263;98887;-86
2023/07/15 06:20:18;;;;;;;9.10;3.70;;;;;;;21.37;72.94;100697.80;105604;1263;96095;-86
2023/07/15 06:23:04;;;;;;;10.80;4.00;;;;;;;21.51;72.44;100700.15;105736;1264;95963;-85
2023/07/15 06:25:49;;;;;;;5.50;3.90;;;;;;;21.64;71.83;100696.14;105838;1267;100038;-87
2023/07/15 06:28:36;;;;;;;6.80;3.70;;;;;;;21.75;70.83;100697.09;106338;1270;100858;-89
2023/07/15 06:31:23;;;;;;;5.70;3.40;;;;;;;21.87;70.34;100697.92;106677;1263;98845;-91
2023/07/15 06:34:09;;;;;;;3.90;3.40;;;;;;;21.98;70.63;100700.29;106141;1262;95844;-82
2023/07/15 06:36:56;;;;;;;11.50;6.60;;;;;;;22.10;69.16;100698.10;107086;1262;95231;-90
2023/07/15 06:39:42;;;;;;;6.30;3.40;;;;;;;22.21;68.40;100699.82;106070;1263;100444;-88
2023/07/15 06:42:36;;;;;;;9.10;3.60;;;;;;;22.34;68.82;100697.63;106238;1267;99103;-78
2023/07/15 06:45:31;;;;;;;7.50;3.40;;;;;;;22.45;68.09;100692.42;106273;1263;97677;-82
2023/07/15 06:48:17;;;;;;;4.50;3.40;;;;;;;22.55;67.07;100691.23;105865;1266;95924;-85
2023/07/15 06:51:02;;;;;;;6.50;3.10;;;;;;;22.66;66.47;100692.14;105753;1267;95779;-84
2023/07/15 06:53:48;;;;;;;6.10;3.50;;;;;;;22.78;66.38;100692.99;105789;1266;99770;-89
2023/07/15 06:56:34;;;;;;;5.40;3.30;;;;;;;22.90;66.70;100690.16;106089;1260;99239;-88
2023/07/15 06:59:20;;;;;;;9.80;3.40;;;;;;;23.02;66.50;100692.25;106404;1261;99033;-87
2023/07/15 07:02:06;;;;;;;3.60;3.10;;;;;;;23.15;66.07;100688.80;106386;1265;95975;-79
2023/07/15 07:04:52;;;;;;;4.10;3.20;;;;;;;23.25;65.60;100686.38;105688;1263;95885;-85
2023/07/15 07:07:38;;;;;;;5.40;2.80;;;;;;;23.35;64.74;100681.36;106734;1257;99949;-92
2023/07/15 07:10:24;;;;;;;4.80;3.00;;;;;;;23.48;64.73;100678.77;106611;1259;99248;-88
2023/07/15 07:13:09;;;;;;;6.70;3.20;;;;;;;23.60;64.05;100675.80;106406;1260;97989;-89
2023/07/15 07:15:57;;;;;;;6.30;3.10;;;;;;;23.71;62.84;100674.45;106046;1263;95823;-85
2023/07/15 07:18:44;;;;;;;7.50;3.00;;;;;;;23.82;62.43;100672.21;106076;1257;95975;-82
2023/07/15 07:21:30;;;;;;;6.60;3.10;;;;;;;23.95;62.02;100669.39;106351;1260;99935;-80
2023/07/15 07:24:15;;;;;;;5.20;3.40;;;;;;;24.09;61.03;100663.84;106893;1261;99292;-79
2023/07/15 07:27:01;;;;;;;8.10;2.90;;;;;;;24.19;60.46;100662.04;106700;1260;97707;-80
2023/07/15 07:29:46;;;;;;;2.90;2.10;;;;;;;24.29;59.05;100658.91;106988;1261;95814;-81
2023/07/15 07:32:32;;;;;;;3.80;2.60;;;;;;;24.39;59.15;100658.63;106027;1260;95869;-80
2023/07/15 07:35:18;;;;;;;3.80;2.50;;;;;;;24.51;58.42;100655.15;106641;1261;98714;-79
2023/07/15 07:38:03;;;;;;;4.70;2.70;;;;;;;24.62;56.88;100651.45;106028;1263;99598;-78
2023/07/15 07:40:49;;;;;;;7.00;2.90;;;;;;;24.74;56.41;100654.22;105785;1261;98887;-84
2023/07/15 07:43:37;;;;;;;6.80;2.70;;;;;;;24.85;55.79;100652.72;106220;1265;95846;-86
2023/07/15 07:46:22;;;;;;;4.80;2.70;;;;;;;24.96;55.09;100652.90;106221;1263;95292;-86
2023/07/15 07:49:08;;;;;;;5.80;2.20;;;;;;;25.07;54.59;100655.50;106382;1262;98847;-81
2023/07/15 07:51:54;;;;;;;7.60;2.80;;;;;;;25.16;53.68;100656.62;106311;1261;100416;-85
2023/07/15 07:54:40;;;;;;;2.40;2.20;;;;;;;25.23;53.00;100660.37;106001;1260;100102;-82
2023/07/15 07:57:26;;;;;;;5.10;2.80;;;;;;;25.30;52.39;100658.02;105802;1259;95810;-82
2023/07/15 08:00:14;;;;;;;6.20;2.80;;;;;;;25.39;52.99;100661.11;106198;1258;95920;-80
2023/07/15 08:02:59;;;;;;;6.30;3.00;;;;;;;25.49;51.95;100654.38;107062;1258;98683;-80
2023/07/15 08:05:47;;;;;;;5.50;2.90;;;;;;;25.58;52.27;100645.49;106257;1262;100404;-80
2023/07/15 08:08:33;;;;;;;6.50;3.40;;;;;;;25.66;52.05;100643.52;106480;1259;99116;-81
2023/07/15 08:11:18;;;;;;;5.30;2.50;;;;;;;25.72;51.87;100645.33;106606;1260;95722;-83
2023/07/15 08:14:04;;;;;;;4.80;2.90;;;;;;;25.80;51.77;100643.85;106624;1258;95971;-88
2023/07/15 08:16:50;;;;;;;5.20;2.50;;;;;;;25.90;51.63;100638.99;106013;1260;98906;-82
2023/07/15 08:19:36;;;;;;;6.10;2.70;;;;;;;25.97;51.49;100639.31;106311;1258;99185;-82
2023/07/15 08:22:21;;;;;;;4.60;2.40;;;;;;;26.05;51.40;100643.54;106432;1260;97832;-82
2023/07/15 08:25:07;;;;;;;3.80;2.50;;;;;;;26.15;51.40;100644.68;106204;1260;96665;-83
2023/07/15 08:27:54;;;;;;;4.90;2.70;;;;;;;26.25;50.55;100640.64;106296;1260;96790;-82
2023/07/15 08:30:40;;;;;;;7.90;2.30;;;;;;;26.30;49.70;100637.85;106207;1260;100081;-82
2023/07/15 08:33:25;;;;;;;6.10;2.20;;;;;;;26.36;49.86;100636.58;106141;1261;100465;-82
2023/07/15 08:36:10;;;;;;;5.20;2.90;;;;;;;26.41;49.22;100632.41;105974;1261;98472;-82
2023/07/15 08:38:56;;;;;;;3.20;2.40;;;;;;;26.47;48.68;100627.30;106069;1260;96686;-81
2023/07/15 08:41:42;;;;;;;7.00;2.70;;;;;;;26.52;49.03;100624.27;106028;1266;97264;-82
2023/07/15 08:44:28;;;;;;;5.70;2.50;;;;;;;26.59;48.66;100620.58;106076;1260;100667;-82
2023/07/15 08:47:22;;;;;;;2.90;2.10;;;;;;;26.66;48.54;100625.00;106137;1261;99221;-82
2023/07/15 08:50:11;;;;;;;5.40;2.40;;;;;;;26.72;47.59;100624.06;106309;1258;97826;-82
2023/07/15 08:52:57;;;;;;;4.00;2.30;;;;;;;26.79;47.91;100622.79;106125;1264;96651;-82
2023/07/15 08:55:43;;;;;;;2.90;2.10;;;;;;;26.88;47.97;100622.13;106148;1260;96625;-83
2023/07/15 08:58:28;;;;;;;3.60;2.60;;;;;;;26.98;47.77;100617.21;106194;1260;100786;-83
2023/07/15 09:01:14;;;;;;;4.00;2.50;;;;;;;27.07;47.47;100620.08;106215;1263;99076;-82
2023/07/15 09:03:59;;;;;;;6.10;2.50;;;;;;;27.15;47.37;100617.70;106307;1259;99038;-83
2023/07/15 09:06:45;;;;;;;4.90;2.30;;;;;;;27.23;46.56;100616.33;106067;1263;96677;-83
2023/07/15 09:09:36;;;;;;;3.40;2.10;;;;;;;27.26;46.19;100614.15;106135;1260;96548;-81
2023/07/15 09:12:24;;;;;;;5.30;2.30;;;;;;;27.29;46.06;100613.33;106207;1257;101268;-82
2023/07/15 09:15:12;;;;;;;7.80;3.30;;;;;;;27.32;45.77;100613.94;106077;1261;99509;-82
2023/07/15 09:18:01;;;;;;;3.30;2.50;;;;;;;27.37;45.49;100610.33;106140;1262;97726;-84
2023/07/15 09:20:48;;;;;;;3.60;2.50;;;;;;;27.44;45.82;100603.72;106442;1262;96630;-81
2023/07/15 09:23:33;;;;;;;3.90;2.20;;;;;;;27.51;45.70;100598.84;106336;1262;96419;-83
2023/07/15 09:26:19;;;;;;;5.90;2.40;;;;;;;27.56;46.02;100596.71;106133;1257;100001;-82
2023/07/15 09:29:04;;;;;;;3.30;2.20;;;;;;;27.64;46.15;100595.55;106397;1262;101340;-82
2023/07/15 09:31:50;;;;;;;4.70;2.40;;;;;;;27.71;45.87;100592.30;106103;1263;99073;-83
2023/07/15 09:34:40;;;;;;;3.70;2.60;;;;;;;27.78;46.20;100588.66;106174;1263;97295;-82
2023/07/15 09:37:33;;;;;;;5.00;3.20;;;;;;;27.87;45.95;100588.28;106183;1263;97052;-83
2023/07/15 09:40:18;;;;;;;6.70;2.60;;;;;;;27.98;45.65;100590.77;106180;1257;101719;-79
2023/07/15 09:43:04;;;;;;;3.40;2.60;;;;;;;28.05;45.29;100586.95;106418;1260;100405;-80
2023/07/15 09:45:52;;;;;;;3.60;2.30;;;;;;;28.12;45.37;100585.95;106233;1256;97702;-79
2023/07/15 09:48:37;;;;;;;3.00;2.40;;;;;;;28.16;44.75;100582.73;106108;1259;96639;-82
2023/07/15 09:51:24;;;;;;;4.70;2.70;;;;;;;28.18;44.73;100573.38;106360;1261;97063;-82
2023/07/15 09:54:10;;;;;;;4.70;2.70;;;;;;;28.23;45.13;100569.82;106262;1256;100699;-82
2023/07/15 09:57:00;;;;;;;4.20;2.60;;;;;;;28.33;45.75;100572.23;106169;1257;99228;-82
2023/07/15 09:59:53;;;;;;;6.50;3.20;;;;;;;28.43;45.05;100573.95;106702;1257;99265;-81
2023/07/15 10:02:42;;;;;;;4.50;2.50;;;;;;;28.52;44.69;100571.40;106132;1262;96649;-81
2023/07/15 10:05:29;;;;;;;5.70;2.50;;;;;;;28.59;44.63;100570.30;106020;1262;96737;-82
2023/07/15 10:08:15;;;;;;;3.80;2.40;;;;;;;28.63;44.34;100569.40;106041;1257;100061;-82
2023/07/15 10:11:01;;;;;;;3.30;2.40;;;;;;;28.67;44.44;100572.16;105838;1257;101019;-82
2023/07/15 10:13:47;;;;;;;6.90;2.40;;;;;;;28.74;44.49;100566.19;105874;1263;98564;-83
2023/07/15 10:16:34;;;;;;;4.70;2.70;;;;;;;28.77;44.11;100560.55;105747;1263;96622;-82
2023/07/15 10:19:39;;;;;;;6.50;2.70;;;;;;;28.82;44.87;100556.47;105805;1260;96584;-82
2023/07/15 10:22:33;;;;;;;3.30;2.40;;;;;;;28.87;44.36;100553.99;105930;1262;99856;-83
2023/07/15 10:25:19;;;;;;;5.00;2.00;;;;;;;28.95;43.90;100557.52;105871;1261;100687;-83
2023/07/15 10:28:10;;;;;;;5.80;2.60;;;;;;;29.05;43.39;100555.70;105927;1258;97783;-82
2023/07/15 10:31:14;;;;;;;2.90;2.30;;;;;;;29.14;43.35;100555.98;105957;1260;96684;-82
2023/07/15 10:34:04;;;;;;;4.50;2.30;;;;;;;29.20;42.83;100554.17;105835;1261;96781;-83
2023/07/15 10:36:50;;;;;;;3.80;2.30;;;;;;;29.23;43.08;100547.64;105741;1264;101431;-83
2023/07/15 10:39:37;;;;;;;4.10;2.40;;;;;;;29.28;43.02;100547.52;105893;1263;99096;-83
2023/07/15 10:42:22;;;;;;;5.60;2.30;;;;;;;29.24;42.47;100545.73;105950;1263;99157;-82
2023/07/15 10:45:11;;;;;;;3.40;2.20;;;;;;;29.18;42.65;100542.35;106068;1262;96608;-82
2023/07/15 10:47:58;;;;;;;6.20;2.60;;;;;;;29.13;42.38;100545.75;105865;1263;97183;-81
2023/07/15 10:51:11;;;;;;;2.80;2.00;;;;;;;29.09;41.67;100540.27;105873;1259;100084;-82
2023/07/15 10:53:59;;;;;;;2.50;2.30;;;;;;;29.14;41.62;100537.13;105872;1258;99201;-83
2023/07/15 10:56:45;;;;;;;4.20;2.30;;;;;;;29.22;41.36;100538.84;106037;1262;99015;-83
2023/07/15 10:59:39;;;;;;;2.60;2.30;;;;;;;29.31;40.94;100535.40;105816;1262;96739;-82
2023/07/15 11:02:24;;;;;;;3.70;2.40;;;;;;;29.40;40.71;100536.07;105802;1259;97248;-82
2023/07/15 11:05:10;;;;;;;2.60;2.00;;;;;;;29.51;41.24;100534.92;105928;1263;100804;-82
2023/07/15 11:07:55;;;;;;;3.40;1.90;;;;;;;29.66;41.15;100537.59;106151;1260;100402;-84
2023/07/15 11:10:43;;;;;;;3.10;1.90;;;;;;;29.78;40.79;100535.04;106042;1262;98929;-82
2023/07/15 11:13:29;;;;;;;4.90;2.30;;;;;;;29.86;39.89;100525.62;106495;1262;96632;-85
2023/07/15 11:16:15;;;;;;;3.90;2.50;;;;;;;29.90;40.27;100521.27;106031;1258;97057;-85
2023/07/15 11:19:00;;;;;;;3.70;2.00;;;;;;;29.97;40.00;100520.30;105922;1260;100089;-82
2023/07/15 11:21:47;;;;;;;4.50;2.10;;;;;;;30.02;38.97;100524.63;106054;1261;100878;-83
2023/07/15 11:24:33;;;;;;;2.80;2.30;;;;;;;30.09;39.20;100522.95;106013;1262;98991;-83
2023/07/15 11:27:18;;;;;;;4.10;2.30;;;;;;;30.19;39.06;100525.66;105844;1260;96709;-82
2023/07/15 11:30:04;;;;;;;2.30;2.10;;;;;;;30.27;38.47;100521.58;105912;1260;97792;-82
2023/07/15 11:32:54;;;;;;;3.80;2.40;;;;;;;30.30;38.11;100520.34;105947;1262;100008;-82
2023/07/15 11:35:41;;;;;;;3.20;2.10;;;;;;;30.35;38.46;100526.77;106037;1261;99309;-83
2023/07/15 11:38:29;;;;;;;3.00;2.40;;;;;;;30.40;38.44;100527.58;105874;1264;97760;-81
2023/07/15 11:41:15;;;;;;;3.60;2.50;;;;;;;30.41;38.38;100524.00;105937;1260;96644;-82
2023/07/15 11:44:01;;;;;;;4.80;2.00;;;;;;;30.44;38.70;100520.20;106109;1261;96672;-80
2023/07/15 11:46:47;;;;;;;4.00;2.30;;;;;;;30.53;38.75;100517.76;106024;1264;100178;-83
2023/07/15 11:49:42;;;;;;;4.70;2.60;;;;;;;30.55;38.15;100509.83;106115;1264;100336;-82
2023/07/15 11:52:35;;;;;;;3.50;2.40;;;;;;;30.48;37.73;100508.38;106058;1264;97724;-82
2023/07/15 11:55:24;;;;;;;3.70;2.20;;;;;;;30.43;38.22;100502.28;106055;1262;96641;-81
2023/07/15 11:58:10;;;;;;;2.70;2.00;;;;;;;30.53;38.71;100499.75;106048;1263;95990;-82
2023/07/15 12:00:57;;;;;;;4.10;2.40;;;;;;;30.66;38.42;100496.23;105876;1265;100872;-82
2023/07/15 12:03:44;;;;;;;4.60;2.70;;;;;;;30.79;38.69;100491.79;106138;1263;99883;-81
2023/07/15 12:06:29;;;;;;;3.50;2.40;;;;;;;30.94;38.38;100490.23;106069;1261;97865;-82
2023/07/15 12:09:16;;;;;;;4.70;2.40;;;;;;;31.06;37.87;100485.65;106003;1262;97715;-80
2023/07/15 12:12:02;;;;;;;6.80;2.60;;;;;;;31.13;37.57;100483.76;106071;1262;97132;-81
2023/07/15 12:14:48;;;;;;;3.50;2.20;;;;;;;31.22;37.41;100480.05;106203;1257;100058;-81
2023/07/15 12:17:33;;;;;;;6.10;2.30;;;;;;;31.30;37.42;100478.84;106146;1257;100453;-84
2023/07/15 12:20:19;;;;;;;7.40;2.50;;;;;;;31.33;36.75;100479.84;106314;1262;99273;-85
2023/07/15 12:23:05;;;;;;;2.90;2.20;;;;;;;31.39;36.72;100479.06;106555;1262;96618;-84
2023/07/15 12:25:51;;;;;;;3.10;2.50;;;;;;;31.48;36.94;100479.98;106272;1257;96646;-82
2023/07/15 12:28:36;;;;;;;2.70;2.20;;;;;;;31.56;36.84;100476.29;106100;1258;100169;-85
2023/07/15 12:31:22;;;;;;;3.90;2.40;;;;;;;31.61;37.03;100470.20;106473;1257;99963;-82
2023/07/15 12:34:08;;;;;;;4.20;2.40;;;;;;;31.68;36.71;100473.20;106375;1257;99027;-87
2023/07/15 12:36:56;;;;;;;3.60;2.40;;;;;;;31.75;36.70;100472.95;105950;1257;96684;-86
2023/07/15 12:39:42;;;;;;;3.40;2.40;;;;;;;31.84;36.75;100471.52;106246;1262;97064;-85
2023/07/15 12:42:28;;;;;;;3.90;2.50;;;;;;;31.86;37.00;100477.05;106178;1262;101347;-86
2023/07/15 12:45:15;;;;;;;4.60;2.50;;;;;;;31.93;36.71;100473.98;106231;1258;100449;-86
2023/07/15 12:48:01;;;;;;;4.50;2.20;;;;;;;32.02;36.22;100469.14;106304;1258;99254;-86
2023/07/15 12:50:46;;;;;;;3.30;2.50;;;;;;;32.04;35.73;100461.86;106365;1257;96512;-82